Time;durP1;ratioP1;P1;durP2;ratioP2;P2;SDS_P1;SDS_P2;PMS_P1;PMS_P2;Temp;Humidity;BMP_temperature;BMP_pressure;BME280_temperature;BME280_humidity;BME280_pressure;Samples;Min_cycle;Max_cycle;Signal;HPM_P1;HPM_P2
2023/04/09 00:01:37;;;;;;;0.60;0.45;;;;;;;14.73;48.67;101087.44;4984324;28;20493;-84
2023/04/09 00:04:08;;;;;;;0.70;0.40;;;;;;;14.71;48.25;101077.84;4975512;28;20046;-79
2023/04/09 00:06:36;;;;;;;0.60;0.50;;;;;;;14.76;48.72;101081.38;4979684;28;20053;-78
2023/04/09 00:09:05;;;;;;;0.55;0.30;;;;;;;14.75;47.55;101075.31;4983863;28;20129;-78
2023/04/09 00:11:33;;;;;;;1.50;0.45;;;;;;;14.72;47.78;101072.63;4970926;28;20051;-77
2023/04/09 00:14:02;;;;;;;1.00;0.45;;;;;;;14.75;48.81;101072.72;4987181;28;20050;-77
2023/04/09 00:16:31;;;;;;;0.77;0.45;;;;;;;14.72;47.48;101067.41;4988252;28;20194;-77
2023/04/09 00:18:59;;;;;;;0.98;0.63;;;;;;;14.70;47.93;101066.50;4984511;28;20047;-77
2023/04/09 00:21:30;;;;;;;1.58;0.65;;;;;;;14.72;48.84;101062.22;4985333;28;20719;-80
2023/04/09 00:24:00;;;;;;;0.57;0.30;;;;;;;14.78;48.49;101067.53;4980149;28;20378;-80
2023/04/09 00:26:28;;;;;;;3.53;0.80;;;;;;;14.75;47.85;101059.69;4989696;28;20610;-80
2023/04/09 00:28:57;;;;;;;0.50;0.35;;;;;;;14.70;46.41;101061.31;4984805;28;20043;-82
2023/04/09 00:31:25;;;;;;;1.42;0.45;;;;;;;14.65;46.99;101048.19;4983552;28;20058;-84
2023/04/09 00:33:54;;;;;;;0.88;0.55;;;;;;;14.68;47.43;101054.31;4986831;28;20586;-81
2023/04/09 00:36:22;;;;;;;2.15;0.45;;;;;;;14.71;51.17;101049.19;4984617;28;20485;-83
2023/04/09 00:38:53;;;;;;;1.48;0.38;;;;;;;14.75;49.76;101046.66;4987875;28;20050;-85
2023/04/09 00:41:22;;;;;;;1.05;0.50;;;;;;;14.75;48.89;101053.56;4983692;28;20125;-82
2023/04/09 00:43:51;;;;;;;1.60;0.63;;;;;;;14.60;49.14;101030.75;4988157;28;20046;-83
2023/04/09 00:46:19;;;;;;;0.77;0.47;;;;;;;14.62;49.67;101040.34;4982720;28;20061;-86
2023/04/09 00:48:48;;;;;;;1.10;0.43;;;;;;;14.65;49.65;101049.94;4986767;28;20042;-82
2023/04/09 00:51:17;;;;;;;1.58;0.75;;;;;;;14.66;48.87;101043.91;4975196;28;20043;-80
2023/04/09 00:53:46;;;;;;;1.00;0.50;;;;;;;14.62;48.38;101036.88;4978885;28;20058;-85
2023/04/09 00:56:18;;;;;;;0.75;0.50;;;;;;;14.65;49.94;101036.91;4982471;28;20035;-85
2023/04/09 00:58:46;;;;;;;1.43;0.60;;;;;;;14.68;49.86;101038.69;4983347;28;20046;-87
2023/04/09 01:01:15;;;;;;;3.05;0.75;;;;;;;14.69;49.34;101038.72;4982436;28;20061;-84
2023/04/09 01:03:44;;;;;;;2.05;0.75;;;;;;;14.72;49.21;101049.19;4981678;28;20042;-86
2023/04/09 01:06:18;;;;;;;0.75;0.40;;;;;;;14.73;48.43;101040.53;4987707;28;20717;-86
2023/04/09 01:08:57;;;;;;;1.40;0.60;;;;;;;14.72;49.58;101043.97;4981653;28;20054;-87
2023/04/09 01:11:37;;;;;;;2.38;0.52;;;;;;;14.70;49.21;101043.06;4992670;28;20050;-87
2023/04/09 01:14:13;;;;;;;2.85;0.70;;;;;;;14.73;50.11;101043.16;4990885;28;20043;-85
2023/04/09 01:16:45;;;;;;;1.15;0.60;;;;;;;14.78;48.75;101049.31;4980736;28;20211;-82
2023/04/09 01:19:31;;;;;;;2.90;0.82;;;;;;;14.80;49.32;101042.41;4984520;28;20050;-80
2023/04/09 01:22:01;;;;;;;6.00;2.28;;;;;;;14.83;49.81;101034.63;4980536;28;20050;-79
2023/04/09 01:24:44;;;;;;;3.58;1.20;;;;;;;14.88;49.87;101042.50;4988228;28;20117;-81
2023/04/09 01:27:15;;;;;;;5.07;1.73;;;;;;;14.90;50.35;101039.94;4988816;28;20042;-80
2023/04/09 01:29:48;;;;;;;1.45;0.65;;;;;;;14.93;50.54;101042.59;4984446;28;20058;-80
2023/04/09 01:32:26;;;;;;;2.22;0.73;;;;;;;14.94;50.98;101041.75;4987230;28;20104;-81
2023/04/09 01:34:56;;;;;;;1.33;0.70;;;;;;;14.94;51.22;101039.16;4988732;28;20062;-80
2023/04/09 01:37:26;;;;;;;2.17;1.13;;;;;;;14.94;51.15;101047.84;4984241;28;20076;-82
2023/04/09 01:39:55;;;;;;;8.55;2.90;;;;;;;14.93;51.01;101034.78;4976203;28;20059;-85
2023/04/09 01:42:23;;;;;;;5.55;2.03;;;;;;;14.90;50.40;101029.53;4979018;28;20074;-80
2023/04/09 01:44:55;;;;;;;4.22;2.17;;;;;;;14.92;50.17;101040.84;4986647;28;20046;-80
2023/04/09 01:47:24;;;;;;;3.70;1.65;;;;;;;14.93;49.66;101043.44;4985790;28;20073;-86
2023/04/09 01:49:53;;;;;;;5.63;2.17;;;;;;;14.91;50.38;101052.97;4984475;28;20050;-79
2023/04/09 01:52:22;;;;;;;6.63;2.03;;;;;;;14.86;50.15;101042.47;4988151;28;20050;-83
2023/04/09 01:54:50;;;;;;;4.47;2.38;;;;;;;14.87;49.46;101056.41;4991355;28;20046;-84
2023/04/09 01:57:19;;;;;;;5.93;1.58;;;;;;;14.81;50.99;101054.56;4986288;28;20046;-84
2023/04/09 01:59:48;;;;;;;2.78;0.90;;;;;;;14.72;53.97;101053.53;4986786;28;20062;-82
2023/04/09 02:02:21;;;;;;;1.50;0.55;;;;;;;14.61;53.51;101055.94;4986516;28;20504;-84
2023/04/09 02:04:52;;;;;;;0.82;0.45;;;;;;;14.53;54.31;101050.56;4985508;28;20141;-84
2023/04/09 02:07:29;;;;;;;0.32;0.30;;;;;;;14.51;54.73;101040.97;4982916;28;20188;-84
2023/04/09 02:10:00;;;;;;;3.03;0.50;;;;;;;14.52;55.18;101040.13;4981066;28;20050;-86
2023/04/09 02:12:30;;;;;;;1.42;0.70;;;;;;;14.47;53.86;101045.25;4972425;28;20050;-88
2023/04/09 02:15:01;;;;;;;1.55;0.50;;;;;;;14.40;58.56;101039.03;4982590;28;20054;-88
2023/04/09 02:17:31;;;;;;;0.38;0.38;;;;;;;14.37;56.68;101036.41;4985441;28;20698;-85
2023/04/09 02:20:00;;;;;;;1.00;0.50;;;;;;;14.37;55.33;101030.31;4980401;28;20049;-83
2023/04/09 02:22:29;;;;;;;0.98;0.40;;;;;;;14.35;55.46;101030.28;4979082;28;20054;-84
2023/04/09 02:24:57;;;;;;;1.13;0.40;;;;;;;14.31;54.40;101025.84;4971192;28;20042;-84
2023/04/09 02:27:26;;;;;;;0.93;0.40;;;;;;;14.37;53.96;101033.78;4972857;28;20050;-85
2023/04/09 02:29:55;;;;;;;3.72;0.77;;;;;;;14.37;54.27;101038.13;4978264;28;20050;-83
2023/04/09 02:32:23;;;;;;;1.35;0.47;;;;;;;14.35;53.98;101035.47;4979119;28;20050;-80
2023/04/09 02:34:54;;;;;;;1.38;0.32;;;;;;;14.32;54.05;101032.84;4988787;28;20105;-86
2023/04/09 02:37:23;;;;;;;3.38;0.73;;;;;;;14.29;57.09;101031.88;4987731;28;20054;-84
2023/04/09 02:39:51;;;;;;;0.75;0.45;;;;;;;14.20;55.27;101038.69;4989301;28;20061;-84
2023/04/09 02:42:20;;;;;;;2.22;0.90;;;;;;;14.16;55.05;101039.47;4981727;28;20054;-87
2023/04/09 02:44:49;;;;;;;0.85;0.50;;;;;;;14.13;54.60;101036.81;4975616;28;20059;-87
2023/04/09 02:47:17;;;;;;;1.40;0.95;;;;;;;14.13;57.08;101031.63;4987820;28;20510;-86
2023/04/09 02:49:46;;;;;;;0.88;0.50;;;;;;;14.16;58.43;101036.00;4986141;28;20476;-87
2023/04/09 02:52:18;;;;;;;1.10;0.52;;;;;;;14.11;58.33;101038.50;4976770;28;20080;-85
2023/04/09 02:54:46;;;;;;;7.97;2.03;;;;;;;14.10;58.29;101046.28;4993387;28;20051;-82
2023/04/09 02:57:15;;;;;;;1.55;0.93;;;;;;;14.06;59.35;101042.72;4984061;28;20101;-84
2023/04/09 02:59:43;;;;;;;1.45;0.77;;;;;;;13.97;58.32;101020.03;4984901;28;20042;-84
2023/04/09 03:02:12;;;;;;;1.05;0.60;;;;;;;14.01;57.79;101033.97;4989324;28;20054;-83
2023/04/09 03:04:41;;;;;;;1.58;0.55;;;;;;;14.00;57.63;101033.09;4978707;28;20074;-77
2023/04/09 03:07:09;;;;;;;1.02;0.85;;;;;;;13.98;58.29;101026.97;4989130;28;20050;-82
2023/04/09 03:09:39;;;;;;;1.50;0.60;;;;;;;13.97;59.31;101029.53;4986800;28;20051;-81
2023/04/09 03:12:08;;;;;;;0.90;0.70;;;;;;;13.91;59.15;101024.22;4985720;28;20061;-81
2023/04/09 03:14:37;;;;;;;1.27;0.60;;;;;;;13.90;59.32;101020.72;4979874;28;20046;-80
2023/04/09 03:17:05;;;;;;;1.42;0.52;;;;;;;13.87;60.17;101023.28;4982719;28;20673;-81
2023/04/09 03:19:34;;;;;;;0.77;0.63;;;;;;;13.85;60.81;101027.56;4979618;28;20065;-78
2023/04/09 03:22:02;;;;;;;4.35;1.10;;;;;;;13.84;62.12;101038.84;4987789;28;20046;-78
2023/04/09 03:24:33;;;;;;;1.58;0.77;;;;;;;13.81;62.53;101038.75;4990578;28;20047;-78
2023/04/09 03:27:03;;;;;;;0.93;0.50;;;;;;;13.77;62.75;101047.34;4982936;28;20120;-77
2023/04/09 03:29:32;;;;;;;1.90;1.02;;;;;;;13.73;63.38;101040.31;4977197;28;20493;-77
2023/04/09 03:32:00;;;;;;;2.78;1.23;;;;;;;13.69;63.19;101041.97;4989868;28;20686;-78
2023/04/09 03:34:29;;;;;;;1.73;1.10;;;;;;;13.66;62.71;101041.91;4986565;28;20573;-78
2023/04/09 03:36:57;;;;;;;6.97;1.60;;;;;;;13.62;62.71;101043.56;4982797;28;20042;-78
2023/04/09 03:39:29;;;;;;;1.95;1.00;;;;;;;13.60;62.64;101045.25;4989636;28;20054;-78
2023/04/09 03:41:58;;;;;;;2.83;1.27;;;;;;;13.58;63.06;101051.25;4980279;28;20043;-78
2023/04/09 03:44:28;;;;;;;1.08;0.85;;;;;;;13.51;63.48;101050.25;4983904;28;20106;-79
2023/04/09 03:46:57;;;;;;;4.45;1.08;;;;;;;13.50;62.94;101058.91;4981489;28;20062;-78
2023/04/09 03:49:25;;;;;;;2.25;1.10;;;;;;;13.50;62.54;101063.22;4967499;28;20078;-76
2023/04/09 03:51:54;;;;;;;2.03;1.00;;;;;;;13.49;64.37;101062.38;4977169;28;20054;-78
2023/04/09 03:54:23;;;;;;;2.28;0.77;;;;;;;13.47;63.04;101063.13;4988113;28;20090;-78
2023/04/09 03:56:51;;;;;;;2.10;0.90;;;;;;;13.44;62.83;101068.28;4977113;28;20055;-78
2023/04/09 03:59:19;;;;;;;1.50;1.13;;;;;;;13.43;63.19;101074.34;4989038;28;20050;-77
2023/04/09 04:01:50;;;;;;;2.10;1.13;;;;;;;13.43;62.99;101069.13;4985549;28;20347;-78
2023/04/09 04:04:19;;;;;;;2.30;0.90;;;;;;;13.39;63.51;101073.38;4985261;28;20105;-78
2023/04/09 04:06:47;;;;;;;1.65;1.13;;;;;;;13.39;63.34;101073.38;4984729;28;20049;-77
2023/04/09 04:09:16;;;;;;;2.80;1.17;;;;;;;13.39;63.41;101076.84;4988487;28;20058;-76
2023/04/09 04:11:47;;;;;;;1.38;0.98;;;;;;;13.39;63.42;101075.97;4986258;28;20062;-78
2023/04/09 04:14:16;;;;;;;4.00;1.20;;;;;;;13.36;62.87;101081.97;4981743;28;20051;-79
2023/04/09 04:16:45;;;;;;;2.05;1.20;;;;;;;13.33;64.01;101074.13;4985285;28;20567;-78
2023/04/09 04:19:15;;;;;;;2.90;0.88;;;;;;;13.32;63.81;101074.94;4977256;28;20489;-77
2023/04/09 04:21:44;;;;;;;1.42;0.80;;;;;;;13.30;64.04;101076.63;4984446;28;20050;-77
2023/04/09 04:24:12;;;;;;;0.95;0.80;;;;;;;13.28;64.06;101083.50;4987271;28;20050;-77
2023/04/09 04:26:41;;;;;;;4.13;0.90;;;;;;;13.28;64.47;101090.44;4988451;28;20448;-77
2023/04/09 04:29:10;;;;;;;2.40;1.40;;;;;;;13.24;64.53;101075.56;4989673;28;20118;-78
2023/04/09 04:31:38;;;;;;;3.28;1.30;;;;;;;13.24;64.94;101080.78;4980801;28;20669;-77
2023/04/09 04:34:07;;;;;;;4.47;1.83;;;;;;;13.21;64.87;101086.78;4975508;28;20101;-77
2023/04/09 04:36:38;;;;;;;3.10;1.73;;;;;;;13.19;64.60;101093.66;4981496;28;20057;-76
2023/04/09 04:39:06;;;;;;;2.92;1.38;;;;;;;13.11;67.41;101096.06;4984906;28;20051;-77
2023/04/09 04:41:35;;;;;;;4.68;0.95;;;;;;;13.00;67.09;101098.41;4985504;28;20042;-77
2023/04/09 04:44:03;;;;;;;2.30;1.25;;;;;;;12.99;67.40;101098.38;4981386;28;20493;-78
2023/04/09 04:46:32;;;;;;;1.65;0.90;;;;;;;12.98;67.88;101107.00;4982832;28;20418;-79
2023/04/09 04:49:01;;;;;;;1.73;0.98;;;;;;;12.96;67.71;101106.06;4979965;28;20039;-77
2023/04/09 04:51:32;;;;;;;2.95;1.02;;;;;;;12.97;67.40;101107.84;4978070;28;20058;-78
2023/04/09 04:54:02;;;;;;;2.17;0.90;;;;;;;12.99;70.20;101106.19;4993232;28;20049;-78
2023/04/09 04:56:30;;;;;;;1.52;1.10;;;;;;;12.93;70.87;101101.69;4982635;28;20045;-77
2023/04/09 04:58:59;;;;;;;9.02;1.35;;;;;;;12.96;70.24;101106.06;4985597;28;20050;-78
2023/04/09 05:01:27;;;;;;;3.50;1.25;;;;;;;12.96;68.66;101106.97;4985960;28;20280;-78
2023/04/09 05:03:56;;;;;;;3.63;1.20;;;;;;;12.95;69.26;101110.41;4982024;28;20057;-78
2023/04/09 05:06:26;;;;;;;5.45;1.75;;;;;;;12.93;70.89;101106.00;4983320;28;20054;-78
2023/04/09 05:08:56;;;;;;;5.32;2.15;;;;;;;12.95;70.37;101119.91;4985215;28;20051;-78
2023/04/09 05:11:27;;;;;;;5.13;2.05;;;;;;;12.94;70.39;101118.13;4987146;28;20046;-78
2023/04/09 05:13:55;;;;;;;5.35;2.13;;;;;;;12.95;70.06;101125.97;4985703;28;20042;-78
2023/04/09 05:16:24;;;;;;;11.00;2.20;;;;;;;12.90;69.23;101119.78;4982474;28;20508;-74
2023/04/09 05:18:52;;;;;;;5.38;1.48;;;;;;;12.96;71.09;101125.16;4974632;28;20097;-76
2023/04/09 05:21:21;;;;;;;7.38;2.28;;;;;;;12.96;70.32;101134.66;4976136;28;20054;-74
2023/04/09 05:23:49;;;;;;;7.22;2.20;;;;;;;12.96;69.51;101127.75;4987708;28;20057;-79
2023/04/09 05:26:18;;;;;;;5.22;2.45;;;;;;;12.96;69.51;101126.84;4974904;28;20047;-78
2023/04/09 05:28:48;;;;;;;6.25;2.85;;;;;;;12.95;69.63;101120.78;4973674;28;20059;-78
2023/04/09 05:31:17;;;;;;;6.03;2.53;;;;;;;12.90;69.71;101116.34;4978576;28;20062;-78
2023/04/09 05:33:45;;;;;;;6.13;2.47;;;;;;;12.87;71.23;101119.69;4983687;28;20046;-78
2023/04/09 05:36:17;;;;;;;6.72;3.03;;;;;;;12.86;70.95;101115.34;4980478;28;20567;-77
2023/04/09 05:38:46;;;;;;;3.28;1.70;;;;;;;12.86;73.25;101117.09;4984607;28;20047;-78
2023/04/09 05:41:15;;;;;;;3.75;2.30;;;;;;;12.82;72.86;101117.84;4980721;28;20053;-78
2023/04/09 05:43:43;;;;;;;4.18;2.15;;;;;;;12.77;71.34;101121.19;4978537;28;20038;-78
2023/04/09 05:46:14;;;;;;;11.43;2.35;;;;;;;12.78;72.70;101120.38;4983583;28;20046;-79
2023/04/09 05:48:44;;;;;;;3.42;2.00;;;;;;;12.78;72.84;101112.56;4978092;28;20133;-77
2023/04/09 05:51:14;;;;;;;2.97;1.80;;;;;;;12.74;74.23;101115.91;4980982;28;20139;-77
2023/04/09 05:53:43;;;;;;;4.90;2.50;;;;;;;12.67;73.29;101113.13;4983605;28;20047;-77
2023/04/09 05:56:15;;;;;;;4.78;1.75;;;;;;;12.56;76.77;101113.72;4988937;28;20535;-77
2023/04/09 05:58:44;;;;;;;9.93;2.60;;;;;;;12.57;76.25;101122.38;4982903;28;20063;-78
2023/04/09 06:01:14;;;;;;;6.15;2.55;;;;;;;12.56;75.87;101120.63;4985341;28;20054;-78
2023/04/09 06:03:43;;;;;;;4.03;2.17;;;;;;;12.54;77.57;101124.88;4984062;28;20963;-78
2023/04/09 06:06:12;;;;;;;4.18;1.83;;;;;;;12.48;75.65;101127.31;4980729;28;20125;-78
2023/04/09 06:08:40;;;;;;;5.07;2.03;;;;;;;12.45;76.63;101125.50;4980249;28;20104;-77
2023/04/09 06:11:10;;;;;;;3.97;1.38;;;;;;;12.44;79.53;101131.56;4989317;28;20050;-78
2023/04/09 06:13:39;;;;;;;5.43;1.55;;;;;;;12.41;81.22;101125.38;4975905;28;20150;-78
2023/04/09 06:16:09;;;;;;;4.07;1.80;;;;;;;12.43;79.57;101118.53;4971830;28;20661;-78
2023/04/09 06:18:39;;;;;;;2.15;1.42;;;;;;;12.43;81.30;101114.19;4980916;28;20090;-77
2023/04/09 06:21:09;;;;;;;1.85;1.10;;;;;;;12.46;80.85;101121.19;4978351;28;20097;-78
2023/04/09 06:23:38;;;;;;;5.28;2.15;;;;;;;12.41;79.83;101122.78;4982813;28;20116;-78
2023/04/09 06:26:06;;;;;;;3.92;1.50;;;;;;;12.36;81.14;101117.47;4980704;28;20050;-78
2023/04/09 06:28:35;;;;;;;3.72;1.20;;;;;;;12.31;81.75;101104.38;4984740;28;20078;-79
2023/04/09 06:31:04;;;;;;;4.47;1.45;;;;;;;12.30;82.55;101102.63;4985238;28;20424;-77
2023/04/09 06:33:32;;;;;;;2.25;1.40;;;;;;;12.32;81.96;101100.03;4980472;28;20066;-78
2023/04/09 06:36:02;;;;;;;3.85;1.73;;;;;;;12.30;82.80;101100.03;4976717;28;20043;-77
2023/04/09 06:38:31;;;;;;;3.33;1.42;;;;;;;12.31;82.14;101103.50;4986705;28;20087;-77
2023/04/09 06:40:59;;;;;;;3.03;1.42;;;;;;;12.30;81.88;101097.44;4982727;28;20047;-77
2023/04/09 06:43:28;;;;;;;2.88;1.58;;;;;;;12.30;81.92;101100.03;4986801;28;20050;-77
2023/04/09 06:45:56;;;;;;;2.92;1.27;;;;;;;12.31;81.46;101093.13;4983480;28;20576;-77
2023/04/09 06:48:25;;;;;;;2.00;1.42;;;;;;;12.28;80.90;101090.44;4983314;28;20050;-79
2023/04/09 06:50:53;;;;;;;2.13;1.42;;;;;;;12.27;81.33;101089.53;4984161;28;20050;-77
2023/04/09 06:53:23;;;;;;;4.90;1.50;;;;;;;12.28;81.33;101093.91;4979424;28;20117;-79
2023/04/09 06:55:52;;;;;;;2.63;1.42;;;;;;;12.27;81.90;101081.75;4985400;28;20117;-78
2023/04/09 06:58:21;;;;;;;4.70;1.40;;;;;;;12.28;81.34;101093.91;4975625;28;20064;-78
2023/04/09 07:00:50;;;;;;;3.75;1.70;;;;;;;12.28;80.64;101086.13;4989944;28;20109;-78
2023/04/09 07:03:18;;;;;;;2.58;1.65;;;;;;;12.27;80.57;101092.13;4974885;28;20662;-78
2023/04/09 07:05:47;;;;;;;2.72;1.48;;;;;;;12.25;80.92;101095.53;4986566;28;20042;-78
2023/04/09 07:08:16;;;;;;;3.95;1.50;;;;;;;12.21;81.86;101086.81;4980298;28;20080;-78
2023/04/09 07:10:46;;;;;;;3.42;1.77;;;;;;;12.18;81.64;101085.81;4988978;28;20050;-78
2023/04/09 07:13:15;;;;;;;1.90;1.27;;;;;;;12.17;82.36;101084.94;4983254;28;20113;-79
2023/04/09 07:15:44;;;;;;;2.42;1.48;;;;;;;12.18;82.10;101083.22;4982505;28;20087;-78
2023/04/09 07:18:12;;;;;;;4.00;1.35;;;;;;;12.18;82.02;101081.50;4985538;28;20138;-78
2023/04/09 07:20:41;;;;;;;2.33;1.33;;;;;;;12.17;81.38;101079.75;4982970;28;20043;-78
2023/04/09 07:23:09;;;;;;;3.13;1.00;;;;;;;12.18;81.63;101081.50;4992244;28;20073;-78
2023/04/09 07:25:38;;;;;;;3.28;1.40;;;;;;;12.18;81.86;101076.31;4982201;28;20078;-76
2023/04/09 07:28:08;;;;;;;4.22;1.40;;;;;;;12.19;82.20;101077.22;4990962;28;20050;-76
2023/04/09 07:30:36;;;;;;;2.30;1.10;;;;;;;12.17;82.75;101077.16;4986451;28;20073;-77
2023/04/09 07:33:05;;;;;;;1.88;1.33;;;;;;;12.12;82.19;101082.22;4984269;28;20058;-77
2023/04/09 07:35:34;;;;;;;4.65;1.77;;;;;;;12.15;82.19;101094.41;4984825;28;20609;-77
2023/04/09 07:38:02;;;;;;;4.72;1.40;;;;;;;12.15;82.85;101097.88;4976798;28;20057;-77
2023/04/09 07:40:31;;;;;;;3.08;1.30;;;;;;;12.14;82.42;101097.84;4988458;28;20050;-78
2023/04/09 07:42:59;;;;;;;2.22;1.27;;;;;;;12.13;83.53;101096.06;4987868;28;20047;-78
2023/04/09 07:45:36;;;;;;;1.80;1.30;;;;;;;12.13;84.24;101099.53;4986863;28;20119;-77
2023/04/09 07:48:05;;;;;;;2.65;1.23;;;;;;;12.12;84.10;101102.97;4984733;28;20054;-77
2023/04/09 07:50:34;;;;;;;3.15;1.42;;;;;;;12.13;84.29;101109.03;4986448;28;20050;-77
2023/04/09 07:53:02;;;;;;;3.15;1.40;;;;;;;12.08;84.77;101101.13;4989987;28;20050;-77
2023/04/09 07:55:31;;;;;;;2.72;1.30;;;;;;;12.08;84.49;101105.44;4989631;28;20748;-77
2023/04/09 07:57:59;;;;;;;3.33;1.35;;;;;;;12.08;85.53;101110.63;4985693;28;20054;-77
2023/04/09 08:00:28;;;;;;;4.00;1.73;;;;;;;12.08;86.33;101106.31;4984948;28;20049;-77
2023/04/09 08:02:58;;;;;;;2.40;1.45;;;;;;;12.08;86.34;101113.22;4981778;28;20050;-78
2023/04/09 08:05:27;;;;;;;4.22;1.50;;;;;;;12.10;86.07;101124.53;4986583;28;20042;-77
2023/04/09 08:07:55;;;;;;;1.88;1.70;;;;;;;12.10;86.07;101116.75;4988862;28;20050;-78
2023/04/09 08:10:24;;;;;;;4.97;2.47;;;;;;;12.10;86.06;101125.41;4987610;28;20047;-77
2023/04/09 08:12:52;;;;;;;6.63;2.75;;;;;;;12.09;85.80;101114.97;4986384;28;20047;-77
2023/04/09 08:15:23;;;;;;;5.95;3.20;;;;;;;12.10;85.08;101120.22;4986034;28;20058;-77
2023/04/09 08:17:51;;;;;;;2.88;1.77;;;;;;;12.11;86.62;101116.75;4978760;28;20061;-78
2023/04/09 08:20:21;;;;;;;3.97;2.05;;;;;;;12.12;86.17;101121.13;4978193;28;20051;-77
2023/04/09 08:22:50;;;;;;;5.88;1.83;;;;;;;12.09;86.72;101122.75;4992953;28;20052;-77
2023/04/09 08:25:19;;;;;;;3.70;2.17;;;;;;;12.08;86.84;101123.59;4991315;28;20117;-77
2023/04/09 08:27:47;;;;;;;3.85;1.80;;;;;;;12.07;86.56;101121.81;4988438;28;20043;-78
2023/04/09 08:30:16;;;;;;;8.88;2.50;;;;;;;12.02;86.25;101126.00;4987018;28;20054;-77
2023/04/09 08:32:44;;;;;;;8.52;2.60;;;;;;;11.93;86.71;101126.59;4987888;28;20062;-77
2023/04/09 08:35:15;;;;;;;6.40;2.40;;;;;;;11.94;87.39;101128.38;4983335;28;20141;-78
2023/04/09 08:37:46;;;;;;;3.90;2.10;;;;;;;11.93;87.66;101124.00;4987868;28;20046;-79
2023/04/09 08:40:15;;;;;;;5.50;1.70;;;;;;;11.88;90.06;101131.66;4986119;28;20074;-77
2023/04/09 08:42:46;;;;;;;3.55;2.35;;;;;;;11.82;89.29;101126.25;4976957;28;20042;-77
2023/04/09 08:45:15;;;;;;;4.82;2.03;;;;;;;11.79;89.76;101122.69;4980580;28;20200;-78
2023/04/09 08:47:45;;;;;;;5.28;2.20;;;;;;;11.80;90.00;101135.72;4980508;28;20043;-78
2023/04/09 08:50:15;;;;;;;5.80;2.20;;;;;;;11.81;90.37;101127.06;4978353;28;20137;-77
2023/04/09 08:52:46;;;;;;;8.05;2.13;;;;;;;11.82;90.88;101130.53;4987096;28;20523;-77
2023/04/09 08:55:15;;;;;;;3.17;1.70;;;;;;;11.83;90.57;101127.13;4976744;28;20125;-78
2023/04/09 08:57:46;;;;;;;2.72;1.60;;;;;;;11.80;93.32;101124.47;4987311;28;20060;-78
2023/04/09 09:00:15;;;;;;;6.70;1.60;;;;;;;11.76;96.64;101120.88;4985836;28;20053;-78
2023/04/09 09:03:05;;;;;;;2.85;1.25;;;;;;;11.73;96.74;101118.22;4978591;28;20161;-79
2023/04/09 09:05:41;;;;;;;3.40;1.92;;;;;;;11.72;96.00;101122.50;4988693;28;20594;-77
2023/04/09 09:08:13;;;;;;;2.30;1.30;;;;;;;11.72;94.52;101119.03;4979744;28;20046;-77
2023/04/09 09:10:43;;;;;;;3.35;1.67;;;;;;;11.74;94.84;101120.81;4984233;28;20456;-77
2023/04/09 09:13:25;;;;;;;3.10;1.75;;;;;;;11.77;94.48;101124.34;4981320;28;20038;-79
2023/04/09 09:15:55;;;;;;;2.20;1.13;;;;;;;11.79;93.04;101118.38;4972390;28;20057;-77
2023/04/09 09:18:39;;;;;;;5.35;1.55;;;;;;;11.77;92.96;101109.66;4976482;28;20046;-78
2023/04/09 09:21:14;;;;;;;3.55;1.88;;;;;;;11.82;92.95;101123.66;4983637;28;20047;-77
2023/04/09 09:23:47;;;;;;;7.00;1.42;;;;;;;11.84;92.38;101116.81;4988978;28;20047;-79
2023/04/09 09:26:19;;;;;;;3.40;1.27;;;;;;;11.82;92.22;101125.38;4984596;28;20604;-80
2023/04/09 09:28:49;;;;;;;6.25;1.75;;;;;;;11.77;93.17;101113.97;4984818;28;20139;-78
2023/04/09 09:31:18;;;;;;;3.15;1.05;;;;;;;11.79;93.72;101118.38;4989814;28;20054;-78
2023/04/09 09:33:47;;;;;;;2.08;1.48;;;;;;;11.79;93.01;101120.97;4987365;28;20058;-77
2023/04/09 09:36:16;;;;;;;3.90;1.73;;;;;;;11.79;93.35;101113.19;4983449;28;20049;-79
2023/04/09 09:39:00;;;;;;;2.58;1.30;;;;;;;11.79;93.12;101118.38;4978646;28;20666;-80
2023/04/09 09:41:29;;;;;;;3.95;1.48;;;;;;;11.79;92.55;101123.56;4987297;28;20142;-78
2023/04/09 09:43:58;;;;;;;4.00;1.73;;;;;;;11.73;92.75;101108.72;4980705;28;20046;-78
2023/04/09 09:46:27;;;;;;;1.95;1.45;;;;;;;11.78;93.58;101127.00;4984859;28;20105;-78
2023/04/09 09:49:03;;;;;;;4.22;1.30;;;;;;;11.72;94.23;101124.22;4671173;28;9252351;-78
2023/04/09 09:51:40;;;;;;;3.28;1.40;;;;;;;11.73;94.57;101123.41;4983799;28;20050;-78
2023/04/09 09:54:13;;;;;;;4.00;1.27;;;;;;;11.74;94.97;101128.59;4989327;28;20046;-78
2023/04/09 09:56:46;;;;;;;4.28;1.35;;;;;;;11.67;96.88;101136.16;4988999;28;20152;-78
2023/04/09 09:59:21;;;;;;;2.28;1.48;;;;;;;11.61;97.46;101141.13;4985390;28;20084;-77
2023/04/09 10:01:57;;;;;;;3.67;1.27;;;;;;;11.49;98.95;101134.72;4989074;28;20137;-77
2023/04/09 10:04:31;;;;;;;4.10;1.67;;;;;;;11.59;100.00;101140.22;4984632;28;20133;-78
2023/04/09 10:07:02;;;;;;;1.67;1.10;;;;;;;11.59;100.00;101146.28;4981161;28;20054;-76
2023/04/09 10:09:34;;;;;;;5.20;2.00;;;;;;;11.51;100.00;101139.97;4987376;28;20547;-77
2023/04/09 10:12:05;;;;;;;2.28;1.35;;;;;;;11.59;100.00;101154.06;4985742;28;20054;-77
2023/04/09 10:14:35;;;;;;;3.78;1.55;;;;;;;11.48;100.00;101130.41;4986076;28;20065;-77
2023/04/09 10:17:04;;;;;;;1.85;1.20;;;;;;;11.53;100.00;101144.38;4987461;28;20057;-77
2023/04/09 10:19:39;;;;;;;3.35;1.20;;;;;;;11.57;100.00;101147.03;4988710;28;20523;-77
2023/04/09 10:22:15;;;;;;;1.88;1.30;;;;;;;11.56;100.00;101150.50;4977578;28;20093;-75
2023/04/09 10:24:48;;;;;;;2.50;1.73;;;;;;;11.47;100.00;101146.75;4986424;28;20173;-75
2023/04/09 10:27:18;;;;;;;3.35;1.75;;;;;;;11.35;100.00;101141.19;4985483;28;20054;-75
2023/04/09 10:29:47;;;;;;;3.17;1.85;;;;;;;11.36;100.00;101144.66;4986294;28;20050;-75
2023/04/09 10:32:26;;;;;;;4.85;1.75;;;;;;;11.33;100.00;101148.91;4987260;28;20058;-75
2023/04/09 10:35:05;;;;;;;3.13;2.08;;;;;;;11.33;100.00;101150.63;4987934;28;20050;-74
2023/04/09 10:37:36;;;;;;;3.42;1.80;;;;;;;11.30;100.00;101156.59;4985762;28;20057;-75
2023/04/09 10:40:07;;;;;;;3.88;1.63;;;;;;;11.32;100.00;101159.25;4988116;28;20051;-75
2023/04/09 10:42:38;;;;;;;4.90;1.75;;;;;;;11.31;100.00;101155.78;4986902;28;20058;-74
2023/04/09 10:45:09;;;;;;;2.38;1.50;;;;;;;11.33;100.00;101154.09;4988690;28;20054;-74
2023/04/09 10:47:39;;;;;;;4.82;1.90;;;;;;;11.33;100.00;101148.03;4978007;28;20521;-74
2023/04/09 10:50:21;;;;;;;3.30;1.80;;;;;;;11.31;100.00;101147.09;4988758;28;20117;-74
2023/04/09 10:52:53;;;;;;;3.45;1.55;;;;;;;11.29;100.00;101141.88;4987834;28;20055;-74
2023/04/09 10:55:48;;;;;;;2.67;1.35;;;;;;;11.28;100.00;101145.28;4978196;28;20652;-75
2023/04/09 10:58:17;;;;;;;3.35;1.77;;;;;;;11.24;100.00;101137.38;4980672;28;20046;-74
2023/04/09 11:00:46;;;;;;;4.00;2.05;;;;;;;11.19;100.00;101125.97;4988935;28;20101;-74
2023/04/09 11:03:23;;;;;;;2.78;1.35;;;;;;;11.27;100.00;101138.38;4985029;28;20496;-75
2023/04/09 11:06:00;;;;;;;5.13;2.05;;;;;;;11.27;100.00;101137.47;4981933;28;20077;-74
2023/04/09 11:08:33;;;;;;;5.20;2.10;;;;;;;11.24;100.00;101129.59;4980352;28;20127;-75
2023/04/09 11:11:02;;;;;;;;;;;;;;;11.27;100.00;101137.47;4986394;28;20046;-75
2023/04/09 11:13:32;;;;;;;4.85;2.30;;;;;;;11.25;100.00;101134.84;4975084;28;19957;-75
2023/04/09 11:16:02;;;;;;;4.75;2.35;;;;;;;11.21;100.00;101142.47;4977458;28;20127;-74
2023/04/09 11:18:33;;;;;;;5.10;2.40;;;;;;;11.19;100.00;101136.34;4985949;28;20121;-75
2023/04/09 11:21:03;;;;;;;5.55;2.33;;;;;;;11.17;100.00;101138.00;4982212;28;20053;-74
2023/04/09 11:23:33;;;;;;;4.43;1.83;;;;;;;11.15;100.00;101145.72;4981786;28;20125;-74
2023/04/09 11:26:04;;;;;;;4.20;2.22;;;;;;;11.13;100.00;101129.22;4992344;28;20685;-74
2023/04/09 11:28:32;;;;;;;5.15;1.67;;;;;;;11.11;100.00;101121.44;4978430;28;20089;-73
2023/04/09 11:31:01;;;;;;;2.97;1.80;;;;;;;11.06;100.00;101128.19;4983219;28;20438;-74
2023/04/09 11:33:34;;;;;;;4.43;1.92;;;;;;;11.01;100.00;101119.34;4989086;28;20039;-74
2023/04/09 11:36:03;;;;;;;2.58;1.17;;;;;;;10.98;100.00;101120.97;4992021;28;20046;-74
2023/04/09 11:38:40;;;;;;;3.38;1.75;;;;;;;10.91;100.00;101127.66;4987054;28;20551;-74